Time;durP1;ratioP1;P1;durP2;ratioP2;P2;SDS_P1;SDS_P2;PMS_P1;PMS_P2;Temp;Humidity;BMP_temperature;BMP_pressure;BME280_temperature;BME280_humidity;BME280_pressure;Samples;Min_cycle;Max_cycle;Signal;HPM_P1;HPM_P2
2022/02/09 00:01:27;;;;;;;24.08;16.73;;;8.90;99.90;;;;;;5047894;28;20032;-60
2022/02/09 00:09:23;;;;;;;23.42;15.63;;;8.90;99.90;;;;;;5047946;28;20021;-62
2022/02/09 00:12:01;;;;;;;23.45;16.33;;;8.90;99.90;;;;;;5047262;28;20448;-61
2022/02/09 00:19:56;;;;;;;20.55;15.15;;;9.00;99.90;;;;;;5048299;28;19909;-59
2022/02/09 00:30:36;;;;;;;;;;;9.00;99.90;;;;;;5051525;28;20027;-62
2022/02/09 00:33:27;;;;;;;15.13;12.15;;;9.10;99.90;;;;;;5050712;28;19959;-58
2022/02/09 00:38:47;;;;;;;17.23;12.38;;;9.10;99.90;;;;;;5050743;28;20025;-61
2022/02/09 01:38:34;;;;;;;6.80;5.28;;;9.10;99.90;;;;;;5049680;28;20039;-63
2022/02/09 01:57:04;;;;;;;7.05;5.05;;;9.10;99.90;;;;;;5051764;28;20091;-59
2022/02/09 01:59:30;;;;;;;7.57;4.28;;;9.10;99.90;;;;;;5057348;28;20660;-61
2022/02/09 02:01:55;;;;;;;5.95;4.60;;;9.10;99.90;;;;;;5052812;28;20037;-60
2022/02/09 02:04:24;;;;;;;;;;;9.20;99.90;;;;;;5049338;28;20385;-60
2022/02/09 02:06:52;;;;;;;5.32;4.75;;;9.10;99.90;;;;;;5054444;28;19999;-62
2022/02/09 02:09:18;;;;;;;5.25;4.47;;;9.20;99.90;;;;;;5056112;28;20421;-63
2022/02/09 02:11:53;;;;;;;6.35;5.50;;;9.20;99.90;;;;;;5049854;28;20098;-60
2022/02/09 02:14:24;;;;;;;7.25;4.78;;;9.20;99.90;;;;;;5048711;28;20394;-63
2022/02/09 02:22:15;;;;;;;8.93;5.03;;;9.20;99.90;;;;;;5052307;28;20930;-61
2022/02/09 02:30:13;;;;;;;;;;;9.10;99.90;;;;;;5054741;28;20058;-63
2022/02/09 03:10:47;;;;;;;6.93;3.72;;;9.10;99.90;;;;;;5047582;28;20027;-61
2022/02/09 03:13:06;;;;;;;7.95;4.60;;;9.10;99.90;;;;;;5046628;28;20116;-58
2022/02/09 03:15:49;;;;;;;6.93;3.30;;;9.10;99.90;;;;;;5052629;28;20119;-60
2022/02/09 03:31:26;;;;;;;9.95;4.25;;;9.20;99.90;;;;;;5019221;28;20091;-73
2022/02/09 03:42:31;;;;;;;4.88;3.72;;;9.20;99.90;;;;;;5016156;28;20140;-73
2022/02/09 03:45:47;;;;;;;3.65;3.28;;;9.20;99.90;;;;;;5015896;28;20026;-73
2022/02/09 03:50:44;;;;;;;4.50;3.20;;;9.20;99.90;;;;;;5015715;28;20033;-73
2022/02/09 03:53:28;;;;;;;3.72;3.25;;;9.20;99.90;;;;;;5016872;28;20471;-73
2022/02/09 03:58:38;;;;;;;6.65;3.78;;;9.20;99.90;;;;;;5020817;28;20088;-73
2022/02/09 04:01:04;;;;;;;;;;;9.20;99.90;;;;;;5016418;28;20030;-73
2022/02/09 04:03:29;;;;;;;5.20;3.58;;;9.20;99.90;;;;;;5021810;28;19955;-73
2022/02/09 04:05:55;;;;;;;4.35;3.55;;;9.20;99.90;;;;;;5020114;28;20121;-73
2022/02/09 04:08:27;;;;;;;;;;;9.20;99.90;;;;;;5021753;28;20037;-73
2022/02/09 04:14:01;;;;;;;9.85;3.05;;;9.20;99.90;;;;;;4977677;28;20038;-73
2022/02/09 04:38:08;;;;;;;4.55;3.22;;;9.20;99.90;;;;;;5021946;28;20037;-73
2022/02/09 04:41:15;;;;;;;4.97;2.95;;;9.20;99.90;;;;;;5018877;28;20671;-73
2022/02/09 04:49:03;;;;;;;5.38;3.90;;;9.20;99.90;;;;;;5020093;28;20076;-73
2022/02/09 04:59:25;;;;;;;4.10;3.22;;;9.20;99.90;;;;;;5020411;28;20041;-73
2022/02/09 05:26:07;;;;;;;5.50;3.45;;;9.10;99.90;;;;;;5017376;28;20033;-73
2022/02/09 05:28:32;;;;;;;7.78;3.25;;;9.10;99.90;;;;;;5017889;28;20041;-72
2022/02/09 05:30:58;;;;;;;;;;;9.10;99.90;;;;;;5019554;28;20030;-71
2022/02/09 05:33:24;;;;;;;3.97;2.72;;;9.10;99.90;;;;;;5018460;28;19913;-73
2022/02/09 05:35:50;;;;;;;;;;;9.10;99.90;;;;;;5019475;28;20079;-75
2022/02/09 05:38:17;;;;;;;7.03;2.83;;;9.10;99.90;;;;;;5018058;28;19958;-75
2022/02/09 05:40:44;;;;;;;3.65;3.30;;;9.10;99.90;;;;;;5018454;28;20038;-74
2022/02/09 05:43:11;;;;;;;6.25;4.30;;;9.10;99.90;;;;;;5015856;28;20085;-74
2022/02/09 05:49:12;;;;;;;4.28;2.33;;;9.10;99.90;;;;;;5020591;28;20095;-74
2022/02/09 05:51:34;;;;;;;6.05;2.22;;;9.10;99.90;;;;;;5018831;28;20025;-74
2022/02/09 05:54:18;;;;;;;3.47;2.35;;;9.10;99.90;;;;;;5020175;28;20041;-75
2022/02/09 05:56:47;;;;;;;2.90;2.03;;;9.10;99.90;;;;;;5021963;28;20026;-74
2022/02/09 05:59:27;;;;;;;5.85;2.25;;;9.10;99.90;;;;;;5018028;28;20097;-74
2022/02/09 06:01:53;;;;;;;3.75;2.13;;;9.10;99.90;;;;;;5017418;28;20037;-74
2022/02/09 06:04:18;;;;;;;;;;;9.20;99.90;;;;;;5016603;28;20031;-74
2022/02/09 06:06:44;;;;;;;3.95;2.25;;;9.10;99.90;;;;;;5014509;28;20294;-73
2022/02/09 06:09:09;;;;;;;;;;;9.20;99.90;;;;;;5017794;28;20029;-73
2022/02/09 06:14:19;;;;;;;;;;;9.20;99.90;;;;;;5018918;28;20104;-73
2022/02/09 06:21:55;;;;;;;5.13;1.75;;;9.20;99.90;;;;;;5018390;28;20076;-73
2022/02/09 06:24:21;;;;;;;;;;;9.20;99.90;;;;;;5018491;28;20128;-73
2022/02/09 06:26:48;;;;;;;5.75;2.00;;;9.20;99.90;;;;;;5018444;28;19929;-73
2022/02/09 06:29:13;;;;;;;;;;;9.20;99.90;;;;;;5019477;28;20478;-73
2022/02/09 06:31:40;;;;;;;3.33;1.58;;;9.20;99.90;;;;;;5002285;28;19960;-73
2022/02/09 06:34:06;;;;;;;5.30;2.38;;;9.10;99.90;;;;;;5017224;28;20087;-73
2022/02/09 06:36:36;;;;;;;1.90;1.48;;;9.10;99.90;;;;;;5019075;28;20036;-73
2022/02/09 06:39:06;;;;;;;3.83;2.08;;;9.10;99.90;;;;;;5019628;28;20030;-73
2022/02/09 06:41:32;;;;;;;5.00;2.15;;;9.10;99.90;;;;;;5019152;28;20061;-73
2022/02/09 06:43:57;;;;;;;3.28;2.50;;;9.10;99.90;;;;;;5019581;28;20032;-73
2022/02/09 06:46:24;;;;;;;;;;;9.10;99.90;;;;;;5019329;28;20353;-73
2022/02/09 06:48:50;;;;;;;4.78;2.25;;;9.10;99.90;;;;;;5016078;28;19951;-73
2022/02/09 06:51:19;;;;;;;;;;;9.10;99.90;;;;;;5018060;28;20056;-73
2022/02/09 06:54:00;;;;;;;3.78;2.92;;;9.10;99.90;;;;;;5017290;28;19915;-71
2022/02/09 06:56:42;;;;;;;3.00;1.73;;;9.10;99.90;;;;;;5018022;28;20535;-75
2022/02/09 07:01:36;;;;;;;2.42;2.13;;;9.10;99.90;;;;;;5015505;28;20378;-76
2022/02/09 07:04:01;;;;;;;;;;;9.10;99.90;;;;;;5016356;28;20022;-76
2022/02/09 07:06:27;;;;;;;2.88;2.03;;;9.10;99.90;;;;;;5017371;28;20294;-81
2022/02/09 07:08:52;;;;;;;;;;;9.10;99.90;;;;;;5017571;28;20029;-83
2022/02/09 07:11:17;;;;;;;3.03;2.10;;;9.10;99.90;;;;;;5016030;28;19994;-77
2022/02/09 07:13:43;;;;;;;;;;;9.10;99.90;;;;;;5017715;28;20449;-79
2022/02/09 07:16:09;;;;;;;3.47;2.40;;;9.10;99.90;;;;;;5014017;28;19960;-74
2022/02/09 07:18:36;;;;;;;3.63;2.75;;;9.00;99.90;;;;;;5015769;28;20489;-74
2022/02/09 07:21:07;;;;;;;4.25;2.47;;;9.10;99.90;;;;;;5016222;28;20045;-73
2022/02/09 07:23:53;;;;;;;3.92;2.40;;;9.10;99.90;;;;;;5016822;28;20030;-74
2022/02/09 07:26:26;;;;;;;5.68;2.53;;;9.00;99.90;;;;;;5018936;28;20040;-75
2022/02/09 07:28:52;;;;;;;12.15;3.13;;;9.10;99.90;;;;;;5017643;28;20036;-73
2022/02/09 07:31:18;;;;;;;;;;;9.00;99.90;;;;;;5015257;28;20030;-73
2022/02/09 07:33:45;;;;;;;3.33;1.87;;;9.10;99.90;;;;;;5018643;28;20285;-73
2022/02/09 07:36:12;;;;;;;3.22;1.65;;;9.10;99.90;;;;;;5017074;28;20443;-73
2022/02/09 07:38:40;;;;;;;3.78;2.10;;;9.10;99.90;;;;;;5015819;28;20045;-73
2022/02/09 07:41:06;;;;;;;2.55;1.58;;;9.00;99.90;;;;;;5014728;28;20033;-73
2022/02/09 07:43:47;;;;;;;1.75;1.48;;;9.10;99.90;;;;;;5015813;28;20034;-73
2022/02/09 07:48:53;;;;;;;3.50;1.52;;;9.10;99.90;;;;;;5017011;28;20026;-75
2022/02/09 07:53:47;;;;;;;3.15;1.15;;;9.10;99.90;;;;;;5017734;28;20497;-77
2022/02/09 07:56:13;;;;;;;2.42;1.35;;;9.10;99.90;;;;;;5014524;28;20040;-74
2022/02/09 07:58:38;;;;;;;;;;;9.10;99.90;;;;;;5018307;28;20022;-74
2022/02/09 08:01:04;;;;;;;3.90;1.73;;;9.10;99.90;;;;;;5016862;28;19913;-76
2022/02/09 08:03:29;;;;;;;;;;;9.10;99.90;;;;;;5017743;28;20037;-77
2022/02/09 08:05:55;;;;;;;2.47;1.00;;;9.10;99.90;;;;;;5017114;28;19913;-75
2022/02/09 08:08:21;;;;;;;;;;;9.10;99.90;;;;;;5015547;28;20022;-76
2022/02/09 08:10:51;;;;;;;5.20;1.30;;;9.10;99.90;;;;;;5016875;28;19920;-77
2022/02/09 08:29:46;;;;;;;5.32;2.67;;;9.20;99.90;;;;;;5014715;28;20091;-74
2022/02/09 08:34:38;;;;;;;;;;;9.20;99.90;;;;;;5017068;28;20127;-77
2022/02/09 08:37:05;;;;;;;1.67;1.23;;;9.30;99.90;;;;;;5017394;28;20277;-78
2022/02/09 08:39:31;;;;;;;5.55;1.17;;;9.30;99.90;;;;;;5014790;28;20030;-78
2022/02/09 08:41:56;;;;;;;;;;;9.30;99.90;;;;;;5017377;28;20458;-76
2022/02/09 08:44:22;;;;;;;4.85;1.25;;;9.40;99.90;;;;;;5019258;28;19952;-77
2022/02/09 08:46:48;;;;;;;10.25;1.70;;;9.40;99.90;;;;;;5016536;28;20269;-77
2022/02/09 08:49:13;;;;;;;;;;;9.50;99.90;;;;;;5019785;28;20045;-75
2022/02/09 08:51:40;;;;;;;3.85;1.30;;;9.50;99.90;;;;;;5019334;28;19917;-75
2022/02/09 08:54:07;;;;;;;4.45;0.90;;;9.50;99.90;;;;;;5019747;28;20580;-74
2022/02/09 08:56:32;;;;;;;5.25;1.00;;;9.50;99.90;;;;;;5020674;28;20482;-75
2022/02/09 08:58:58;;;;;;;;;;;9.50;99.90;;;;;;5019187;28;20040;-74
2022/02/09 09:01:38;;;;;;;4.22;1.25;;;9.50;99.90;;;;;;5017400;28;19917;-73
2022/02/09 09:04:19;;;;;;;3.00;1.20;;;9.40;99.90;;;;;;5018381;28;20032;-80
2022/02/09 09:06:51;;;;;;;4.03;1.60;;;9.40;99.90;;;;;;5020847;28;20037;-74
2022/02/09 09:09:25;;;;;;;5.13;2.13;;;9.30;99.90;;;;;;5020025;28;20071;-74
2022/02/09 09:15:21;;;;;;;3.17;1.30;;;9.20;99.90;;;;;;5018479;28;20028;-74
2022/02/09 09:59:05;;;;;;;1.83;1.30;;;9.70;99.90;;;;;;5080064;28;20040;-76
2022/02/09 10:04:39;;;;;;;1.58;0.65;;;9.80;99.90;;;;;;5079492;28;20063;-76
2022/02/09 10:35:41;;;;;;;;;;;10.10;99.90;;;;;;5075900;28;20568;-73
2022/02/09 10:38:28;;;;;;;4.38;0.88;;;10.10;99.90;;;;;;5077455;28;19918;-74
2022/02/09 10:41:06;;;;;;;1.23;0.93;;;10.10;99.90;;;;;;5077988;28;20024;-75
2022/02/09 10:43:34;;;;;;;2.63;0.90;;;10.10;99.90;;;;;;5077111;28;20031;-74
2022/02/09 10:46:13;;;;;;;2.15;0.93;;;10.20;99.90;;;;;;5074921;28;20517;-78
2022/02/09 10:48:51;;;;;;;1.73;1.10;;;10.20;99.90;;;;;;5076644;28;20496;-78
2022/02/09 10:51:26;;;;;;;1.98;1.27;;;10.30;99.90;;;;;;5077155;28;20190;-77
2022/02/09 10:54:03;;;;;;;0.75;0.75;;;10.30;99.90;;;;;;5073741;28;20046;-74
2022/02/09 10:56:30;;;;;;;2.45;0.95;;;10.20;99.90;;;;;;5077094;28;20051;-78
2022/02/09 10:59:00;;;;;;;4.00;1.10;;;10.20;99.90;;;;;;5073404;28;20101;-79
2022/02/09 11:01:27;;;;;;;3.00;1.52;;;10.20;99.90;;;;;;5075213;28;20032;-78
2022/02/09 11:03:55;;;;;;;7.70;0.65;;;10.30;99.90;;;;;;5077568;28;20067;-79
2022/02/09 11:06:24;;;;;;;0.70;0.52;;;10.30;99.90;;;;;;5076729;28;20031;-82
2022/02/09 11:08:50;;;;;;;0.80;0.50;;;10.30;99.90;;;;;;5075769;28;20028;-75
2022/02/09 11:11:16;;;;;;;;;;;10.30;99.90;;;;;;5076668;28;20027;-74
2022/02/09 11:13:42;;;;;;;2.38;1.08;;;10.40;99.90;;;;;;5073743;28;19908;-74
2022/02/09 11:16:09;;;;;;;1.77;0.70;;;10.40;99.90;;;;;;5073427;28;20037;-76
2022/02/09 11:18:35;;;;;;;2.92;0.80;;;10.40;99.90;;;;;;5076821;28;20053;-85
2022/02/09 11:21:03;;;;;;;2.50;1.08;;;10.40;99.90;;;;;;5075099;28;20410;-82
2022/02/09 11:23:55;;;;;;;0.88;0.77;;;10.40;99.90;;;;;;5076527;28;20032;-80
2022/02/09 11:29:18;;;;;;;5.18;1.38;;;10.30;99.90;;;;;;5075579;28;20036;-76
2022/02/09 11:32:14;;;;;;;1.60;1.08;;;10.30;99.90;;;;;;5066000;28;20050;-78
2022/02/09 11:34:53;;;;;;;2.63;1.08;;;10.40;99.90;;;;;;5074153;28;20493;-77
2022/02/09 11:37:38;;;;;;;1.02;0.75;;;10.40;99.90;;;;;;5076132;28;20039;-78
2022/02/09 11:43:27;;;;;;;2.67;0.80;;;10.50;99.90;;;;;;4999926;28;20100;-79
2022/02/09 11:52:07;;;;;;;6.50;2.30;;;10.50;99.90;;;;;;5077473;28;20388;-74
2022/02/09 11:58:35;;;;;;;4.40;1.27;;;10.50;99.90;;;;;;5076003;28;20039;-74
2022/02/09 12:10:06;;;;;;;14.13;1.75;;;10.70;99.90;;;;;;5072909;28;20059;-75
2022/02/09 12:12:19;;;;;;;6.22;1.08;;;10.70;99.90;;;;;;5068613;28;20036;-75
2022/02/09 12:15:10;;;;;;;1.48;0.70;;;10.70;99.90;;;;;;5072844;28;20036;-76
2022/02/09 12:22:50;;;;;;;1.85;1.48;;;10.80;99.90;;;;;;5076155;28;20539;-74
2022/02/09 12:25:16;;;;;;;3.15;1.20;;;10.90;99.90;;;;;;5080285;28;20035;-74
2022/02/09 12:27:48;;;;;;;;;;;10.80;99.90;;;;;;5077066;28;20027;-75
2022/02/09 12:30:14;;;;;;;3.30;1.27;;;10.80;99.90;;;;;;5079309;28;19904;-76
2022/02/09 12:32:39;;;;;;;;;;;10.80;99.90;;;;;;5077471;28;20085;-76
2022/02/09 12:35:13;;;;;;;1.60;0.88;;;10.80;99.90;;;;;;5079293;28;19969;-74
2022/02/09 12:37:41;;;;;;;1.50;0.88;;;10.90;99.90;;;;;;5078661;28;20541;-75
2022/02/09 12:40:21;;;;;;;2.15;1.20;;;10.90;99.90;;;;;;5079166;28;20025;-76
2022/02/09 12:42:49;;;;;;;1.33;1.10;;;10.90;99.90;;;;;;5079045;28;20055;-75
2022/02/09 12:45:22;;;;;;;1.48;1.10;;;10.90;99.90;;;;;;5077207;28;20073;-74
2022/02/09 12:47:57;;;;;;;1.27;1.05;;;10.90;99.90;;;;;;5075941;28;20047;-74
2022/02/09 12:50:40;;;;;;;1.30;0.95;;;10.90;99.90;;;;;;5080272;28;20069;-72
2022/02/09 12:53:07;;;;;;;2.08;1.08;;;11.00;99.90;;;;;;5079493;28;20040;-72
2022/02/09 12:55:36;;;;;;;1.40;0.82;;;11.00;99.90;;;;;;5077502;28;20024;-71
2022/02/09 12:58:08;;;;;;;5.70;0.98;;;11.00;99.90;;;;;;5081014;28;20036;-71
2022/02/09 13:00:53;;;;;;;3.50;1.55;;;11.00;99.90;;;;;;5078323;28;20025;-72
2022/02/09 13:03:21;;;;;;;11.15;1.55;;;11.00;99.90;;;;;;5078462;28;20082;-70
2022/02/09 13:05:56;;;;;;;1.58;1.10;;;11.00;99.90;;;;;;5077371;28;20098;-75
2022/02/09 13:08:27;;;;;;;2.45;2.13;;;11.00;99.90;;;;;;5079143;28;20415;-73
2022/02/09 13:11:33;;;;;;;3.65;1.05;;;11.00;99.90;;;;;;5078675;28;20093;-73
2022/02/09 13:14:08;;;;;;;3.97;1.48;;;11.00;99.90;;;;;;5079457;28;20107;-75
2022/02/09 13:17:09;;;;;;;1.85;1.38;;;11.00;99.90;;;;;;5079214;28;20024;-75
2022/02/09 13:54:08;;;;;;;4.07;1.77;;;11.70;99.90;;;;;;5078758;28;20070;-72
2022/02/09 14:12:36;;;;;;;4.93;1.75;;;10.70;99.90;;;;;;5079246;28;20389;-71
2022/02/09 14:57:43;;;;;;;3.08;2.80;;;10.40;99.90;;;;;;5052166;28;20381;-70
2022/02/09 15:00:14;;;;;;;2.50;2.17;;;10.50;99.90;;;;;;5076482;28;20088;-70
2022/02/09 15:10:36;;;;;;;4.38;2.67;;;10.40;99.90;;;;;;5078748;28;20039;-68
2022/02/09 15:13:18;;;;;;;3.17;2.90;;;10.40;99.90;;;;;;5074485;28;20035;-69
2022/02/09 15:21:18;;;;;;;3.10;2.78;;;10.30;99.90;;;;;;5074299;28;20943;-72
2022/02/09 15:23:44;;;;;;;2.92;2.40;;;10.40;99.90;;;;;;5074322;28;20028;-74
2022/02/09 15:26:10;;;;;;;;;;;10.30;99.90;;;;;;5076348;28;20516;-71
2022/02/09 15:28:37;;;;;;;5.57;3.83;;;10.30;99.90;;;;;;5076635;28;20379;-71
2022/02/09 15:31:08;;;;;;;4.18;2.97;;;10.30;99.90;;;;;;5075965;28;20025;-71
2022/02/09 15:33:48;;;;;;;2.65;2.30;;;10.30;99.90;;;;;;5075150;28;20115;-71
2022/02/09 15:36:17;;;;;;;8.90;2.90;;;10.30;99.90;;;;;;5075466;28;20025;-73
2022/02/09 15:38:45;;;;;;;9.93;3.20;;;10.30;99.90;;;;;;5076810;28;20028;-70
2022/02/09 15:41:29;;;;;;;3.88;2.17;;;10.30;99.90;;;;;;5074047;28;20103;-70
2022/02/09 15:44:11;;;;;;;5.47;3.28;;;10.20;99.90;;;;;;5075805;28;20049;-70
2022/02/09 16:08:45;;;;;;;4.00;2.15;;;10.00;99.90;;;;;;5077559;28;20120;-69
2022/02/09 16:11:25;;;;;;;7.38;2.05;;;10.00;99.90;;;;;;5077378;28;20021;-68
2022/02/09 16:16:56;;;;;;;4.18;2.65;;;9.90;99.90;;;;;;5078248;28;20023;-68
2022/02/09 16:19:57;;;;;;;3.67;1.58;;;9.90;99.90;;;;;;5079572;28;20056;-69
2022/02/09 16:22:25;;;;;;;5.82;2.28;;;9.90;99.90;;;;;;5078998;28;20021;-70
2022/02/09 16:38:34;;;;;;;4.68;1.70;;;9.80;99.90;;;;;;5075939;28;20116;-67
2022/02/09 16:46:28;;;;;;;2.30;1.65;;;9.80;99.90;;;;;;5078494;28;20035;-67
2022/02/09 16:51:25;;;;;;;7.88;1.73;;;9.70;99.90;;;;;;5072318;28;20568;-67
2022/02/09 17:21:09;;;;;;;5.43;2.60;;;9.60;99.90;;;;;;4998572;28;20087;-67
2022/02/09 17:23:35;;;;;;;;;;;9.60;99.90;;;;;;5045825;28;20280;-67
2022/02/09 17:26:00;;;;;;;3.75;3.45;;;9.60;99.90;;;;;;5079114;28;20323;-67
2022/02/09 17:28:27;;;;;;;4.18;2.53;;;9.60;99.90;;;;;;5080942;28;20032;-67
2022/02/09 17:31:02;;;;;;;3.10;2.65;;;9.60;99.90;;;;;;5075773;28;20113;-67
2022/02/09 17:38:49;;;;;;;;;;;9.60;99.90;;;;;;5078140;28;20051;-67
2022/02/09 17:57:40;;;;;;;5.25;3.85;;;9.50;99.90;;;;;;5078293;28;20388;-67
2022/02/09 18:00:15;;;;;;;3.97;3.67;;;9.60;99.90;;;;;;5075121;28;20045;-67
2022/02/09 18:02:43;;;;;;;4.97;4.20;;;9.60;99.90;;;;;;5078339;28;20131;-64
2022/02/09 18:05:18;;;;;;;6.43;4.28;;;9.60;99.90;;;;;;5076477;28;20101;-65
2022/02/09 18:07:47;;;;;;;5.65;4.32;;;9.60;99.90;;;;;;5079706;28;20047;-65
2022/02/09 18:10:24;;;;;;;5.15;4.25;;;9.60;99.90;;;;;;5071672;28;20031;-65
2022/02/09 18:13:14;;;;;;;4.78;4.32;;;9.50;99.90;;;;;;5075525;28;20052;-65
2022/02/09 18:27:01;;;;;;;5.65;4.38;;;9.50;99.90;;;;;;5075399;28;20165;-67
2022/02/09 18:29:26;;;;;;;6.65;3.88;;;9.50;99.90;;;;;;5072847;28;20469;-67
2022/02/09 18:44:59;;;;;;;6.97;3.83;;;9.50;99.90;;;;;;5077648;28;19919;-67
2022/02/09 19:03:31;;;;;;;4.78;4.13;;;9.50;99.90;;;;;;5077402;28;20036;-67
2022/02/09 19:06:01;;;;;;;5.68;4.03;;;9.40;99.90;;;;;;5073546;28;20032;-67
2022/02/09 19:08:49;;;;;;;3.65;3.33;;;9.40;99.90;;;;;;5077422;28;20040;-68
2022/02/09 19:14:24;;;;;;;6.55;4.88;;;9.50;99.90;;;;;;5077773;28;20098;-68
2022/02/09 19:17:01;;;;;;;3.90;3.55;;;9.50;99.90;;;;;;5074149;28;20036;-68
2022/02/09 19:19:39;;;;;;;4.20;3.85;;;9.50;99.90;;;;;;5076858;28;20514;-68
2022/02/09 19:28:52;;;;;;;5.50;4.32;;;9.50;99.90;;;;;;5076384;28;20111;-67
2022/02/09 19:30:42;;;;;;;7.30;4.22;;;9.40;99.90;;;;;;5073826;28;20016;-67
2022/02/09 19:47:00;;;;;;;5.63;4.65;;;9.40;99.90;;;;;;5054509;28;20028;-68
2022/02/09 19:52:11;;;;;;;;;;;9.40;99.90;;;;;;5075437;28;20051;-68
2022/02/09 19:54:44;;;;;;;5.13;4.40;;;9.40;99.90;;;;;;5071345;28;20330;-67
2022/02/09 19:57:10;;;;;;;11.48;5.13;;;9.40;99.90;;;;;;5071745;28;20489;-68
2022/02/09 19:59:38;;;;;;;5.88;5.32;;;9.40;99.90;;;;;;5072990;28;20017;-68
2022/02/09 20:02:08;;;;;;;7.13;5.53;;;9.40;99.90;;;;;;5074291;28;20028;-68
2022/02/09 20:04:36;;;;;;;6.22;5.47;;;9.50;99.90;;;;;;5075143;28;20024;-67
2022/02/09 20:07:02;;;;;;;6.28;5.35;;;9.40;99.90;;;;;;5072182;28;20419;-68
2022/02/09 20:09:28;;;;;;;7.70;6.18;;;9.40;99.90;;;;;;5075810;28;20024;-68
2022/02/09 20:11:53;;;;;;;;;;;9.50;99.90;;;;;;5073733;28;20032;-68
2022/02/09 20:14:20;;;;;;;7.78;5.35;;;9.40;99.90;;;;;;5076478;28;19919;-68
2022/02/09 20:16:46;;;;;;;7.10;5.32;;;9.40;99.90;;;;;;5072747;28;20028;-68
2022/02/09 20:19:12;;;;;;;;;;;9.40;99.90;;;;;;5077310;28;20032;-68
2022/02/09 20:21:38;;;;;;;7.25;5.43;;;9.50;99.90;;;;;;5073614;28;19919;-68
2022/02/09 20:24:04;;;;;;;;;;;9.40;99.90;;;;;;5077109;28;20040;-68
2022/02/09 20:26:30;;;;;;;7.00;5.78;;;9.40;99.90;;;;;;5076790;28;19938;-68
2022/02/09 20:29:04;;;;;;;;;;;9.40;99.90;;;;;;5078475;28;20052;-68
2022/02/09 20:31:34;;;;;;;5.38;4.90;;;9.50;99.90;;;;;;5076690;28;20187;-68
2022/02/09 20:34:12;;;;;;;7.97;5.65;;;9.50;99.90;;;;;;5078167;28;20071;-68
2022/02/09 20:36:40;;;;;;;8.15;5.40;;;9.40;99.90;;;;;;5077169;28;20103;-68
2022/02/09 20:39:06;;;;;;;8.20;5.70;;;9.40;99.90;;;;;;5077658;28;20030;-68
2022/02/09 20:41:34;;;;;;;7.15;6.03;;;9.40;99.90;;;;;;5071322;28;20127;-68
2022/02/09 20:44:19;;;;;;;9.43;5.82;;;9.40;99.90;;;;;;5075397;28;20493;-67
2022/02/09 20:46:44;;;;;;;10.77;6.43;;;9.40;99.90;;;;;;5076436;28;20036;-67
2022/02/09 20:49:10;;;;;;;;;;;9.40;99.90;;;;;;5080178;28;20016;-69
2022/02/09 20:51:35;;;;;;;6.63;5.30;;;9.40;99.90;;;;;;5074403;28;19947;-67
2022/02/09 20:54:01;;;;;;;;;;;9.40;99.90;;;;;;5081144;28;20028;-67
2022/02/09 20:56:26;;;;;;;7.05;6.32;;;9.40;99.90;;;;;;5079915;28;19908;-67
2022/02/09 20:58:59;;;;;;;5.45;4.90;;;9.40;99.90;;;;;;5080269;28;20020;-67
2022/02/09 21:03:43;;;;;;;6.83;5.67;;;9.40;99.90;;;;;;5087904;27;20833;-61
2022/02/09 21:08:50;;;;;;;5.60;4.82;;;9.40;99.90;;;;;;5074909;28;20126;-61
2022/02/09 21:13:57;;;;;;;13.63;6.35;;;9.40;99.90;;;;;;5079278;28;20107;-63
2022/02/09 21:31:14;;;;;;;6.78;5.70;;;9.30;99.90;;;;;;5029901;28;20033;-62
2022/02/09 21:49:04;;;;;;;7.50;5.80;;;9.30;99.90;;;;;;5011725;28;20032;-62
2022/02/09 21:50:19;;;;;;;8.68;6.15;;;9.30;99.90;;;;;;5029229;28;20022;-62
2022/02/09 21:57:55;;;;;;;9.50;7.10;;;9.20;99.90;;;;;;5022557;28;20120;-62
2022/02/09 22:00:56;;;;;;;12.13;7.25;;;9.20;99.90;;;;;;5026415;28;20047;-62
2022/02/09 22:27:27;;;;;;;8.02;5.50;;;9.20;99.90;;;;;;5010517;28;20202;-62
2022/02/09 22:33:21;;;;;;;;;;;9.20;99.90;;;;;;5009244;28;20372;-62
2022/02/09 22:46:40;;;;;;;14.00;7.75;;;9.20;99.90;;;;;;5011310;28;20052;-62
2022/02/09 22:56:36;;;;;;;10.18;6.43;;;9.20;99.90;;;;;;5011130;28;19920;-60
2022/02/09 22:59:06;;;;;;;;;;;9.20;99.90;;;;;;5011328;28;20029;-62
2022/02/09 23:07:02;;;;;;;7.32;5.88;;;9.20;99.90;;;;;;5010355;28;19971;-61
2022/02/09 23:09:48;;;;;;;10.50;6.93;;;9.20;99.90;;;;;;5014818;28;20061;-62
2022/02/09 23:15:21;;;;;;;10.73;7.80;;;9.20;99.90;;;;;;5009377;28;20037;-61
2022/02/09 23:23:17;;;;;;;10.27;5.93;;;9.20;99.90;;;;;;5007617;28;20025;-61
2022/02/09 23:53:22;;;;;;;10.00;5.10;;;9.10;99.90;;;;;;5006760;28;20044;-63
